createdAt,value
2022-07-30T00:01:16.042Z,84.82
2022-07-30T00:03:42.793Z,80.25
2022-07-30T00:06:09.596Z,81.50
2022-07-30T00:08:36.225Z,78.20
2022-07-30T00:11:02.832Z,77.13
2022-07-30T00:13:29.660Z,75.18
2022-07-30T00:15:56.669Z,67.90
2022-07-30T00:18:23.323Z,71.47
2022-07-30T00:20:49.970Z,67.90
2022-07-30T00:23:17.120Z,71.55
2022-07-30T00:25:44.260Z,72.50
2022-07-30T00:28:10.926Z,75.90
2022-07-30T00:30:38.875Z,76.25
2022-07-30T00:33:05.596Z,72.97
2022-07-30T00:35:34.901Z,78.55
2022-07-30T00:38:03.692Z,78.05
2022-07-30T00:40:30.331Z,77.20
2022-07-30T00:42:57.031Z,67.43
2022-07-30T00:45:23.727Z,66.53
2022-07-30T00:47:50.353Z,70.85
2022-07-30T00:50:17.106Z,66.53
2022-07-30T00:52:44.087Z,64.18
2022-07-30T00:55:12.520Z,59.40
2022-07-30T00:57:39.447Z,59.38
2022-07-30T01:00:13.463Z,58.33
2022-07-30T01:02:40.405Z,55.35
2022-07-30T01:05:07.580Z,57.03
2022-07-30T01:07:34.493Z,55.00
2022-07-30T01:10:01.165Z,55.03
2022-07-30T01:12:27.951Z,58.10
2022-07-30T01:14:56.323Z,60.78
2022-07-30T01:17:22.964Z,65.35
2022-07-30T01:19:49.944Z,62.25
2022-07-30T01:22:31.437Z,67.57
2022-07-30T01:25:03.943Z,70.10
2022-07-30T01:27:32.868Z,69.75
2022-07-30T01:29:59.904Z,69.22
2022-07-30T01:32:26.626Z,69.53
2022-07-30T01:34:53.272Z,70.15
2022-07-30T01:37:20.383Z,64.25
2022-07-30T01:39:47.517Z,59.58
2022-07-30T01:42:14.220Z,62.92
2022-07-30T01:44:40.860Z,60.47
2022-07-30T01:47:08.712Z,61.97
2022-07-30T01:49:35.335Z,56.03
2022-07-30T01:52:02.681Z,53.70
2022-07-30T01:54:29.313Z,50.42
2022-07-30T01:56:56.608Z,46.97
2022-07-30T01:59:25.479Z,47.58
2022-07-30T02:01:52.144Z,41.78
2022-07-30T02:04:18.756Z,43.58
2022-07-30T02:07:06.847Z,39.97
2022-07-30T02:09:38.402Z,38.42
2022-07-30T02:12:23.455Z,37.15
2022-07-30T02:14:52.720Z,33.47
2022-07-30T02:17:30.024Z,35.00
2022-07-30T02:19:57.660Z,31.70
2022-07-30T02:22:25.626Z,32.25
2022-07-30T02:24:52.626Z,32.05
2022-07-30T02:27:27.348Z,29.58
2022-07-30T02:29:54.559Z,29.00
2022-07-30T02:32:24.607Z,27.05
2022-07-30T02:35:00.691Z,26.70
2022-07-30T02:37:41.482Z,25.83
2022-07-30T02:40:12.639Z,23.50
2022-07-30T02:42:39.684Z,25.45
2022-07-30T02:45:06.885Z,22.50
2022-07-30T02:47:33.526Z,22.13
2022-07-30T02:50:00.201Z,22.08
2022-07-30T02:52:26.909Z,24.05
2022-07-30T02:54:53.518Z,21.33
2022-07-30T02:57:20.320Z,21.85
2022-07-30T02:59:46.941Z,21.40
2022-07-30T03:02:14.854Z,20.30
2022-07-30T03:04:41.971Z,19.08
2022-07-30T03:07:09.165Z,18.58
2022-07-30T03:09:51.125Z,19.50
2022-07-30T03:12:19.171Z,19.60
2022-07-30T03:14:45.829Z,16.27
2022-07-30T03:17:12.490Z,16.98
2022-07-30T03:19:39.864Z,18.45
2022-07-30T03:22:07.445Z,16.13
2022-07-30T03:24:34.077Z,15.45
2022-07-30T03:27:03.806Z,16.30
2022-07-30T03:29:30.789Z,15.80
2022-07-30T03:31:57.774Z,15.15
2022-07-30T03:34:27.023Z,14.07
2022-07-30T03:36:55.572Z,15.45
2022-07-30T03:39:22.583Z,14.77
2022-07-30T03:41:49.417Z,14.80
2022-07-30T03:44:16.226Z,14.02
2022-07-30T03:46:42.952Z,14.25
2022-07-30T03:49:10.496Z,13.85
2022-07-30T03:51:38.924Z,13.70
2022-07-30T03:54:13.166Z,13.02
2022-07-30T03:56:40.455Z,12.98
2022-07-30T03:59:07.109Z,13.10
2022-07-30T04:01:33.754Z,13.43
2022-07-30T04:04:09.883Z,13.05
2022-07-30T04:06:40.301Z,12.20
2022-07-30T04:09:08.281Z,12.07
2022-07-30T04:11:40.766Z,12.00
2022-07-30T04:14:08.604Z,10.80
2022-07-30T04:16:49.820Z,11.30
2022-07-30T04:19:29.909Z,11.95
2022-07-30T04:21:56.930Z,10.70
2022-07-30T04:24:23.729Z,11.18
2022-07-30T04:26:50.452Z,10.75
2022-07-30T04:29:21.386Z,9.80
2022-07-30T04:31:51.692Z,11.30
2022-07-30T04:34:18.342Z,10.15
2022-07-30T04:36:45.005Z,10.15
2022-07-30T04:39:11.739Z,10.35
2022-07-30T04:41:49.375Z,10.25
2022-07-30T04:44:19.080Z,9.60
2022-07-30T04:46:46.806Z,10.57
2022-07-30T04:49:14.025Z,10.90
2022-07-30T04:51:40.731Z,10.98
2022-07-30T04:54:15.775Z,11.05
2022-07-30T04:57:01.230Z,11.68
2022-07-30T04:59:27.934Z,11.68
2022-07-30T05:01:55.316Z,12.18
2022-07-30T05:04:22.463Z,13.30
2022-07-30T05:06:49.093Z,13.20
2022-07-30T05:09:16.217Z,15.90
2022-07-30T05:11:42.982Z,16.48
2022-07-30T05:14:09.621Z,16.92
2022-07-30T05:16:36.234Z,17.10
2022-07-30T05:19:07.445Z,17.50
2022-07-30T05:21:34.599Z,18.42
2022-07-30T05:24:01.208Z,18.15
2022-07-30T05:26:28.088Z,18.02
2022-07-30T05:28:55.969Z,18.25
2022-07-30T05:31:24.196Z,18.30
2022-07-30T05:33:51.603Z,18.05
2022-07-30T05:36:19.252Z,17.75
2022-07-30T05:38:45.951Z,17.50
2022-07-30T05:41:30.709Z,17.00
2022-07-30T05:43:59.223Z,16.35
2022-07-30T05:46:25.984Z,15.48
2022-07-30T05:48:52.796Z,15.05
2022-07-30T05:51:20.939Z,14.70
2022-07-30T05:53:47.717Z,13.70
2022-07-30T05:56:14.354Z,14.75
2022-07-30T05:58:40.967Z,13.80
2022-07-30T06:01:07.662Z,14.02
2022-07-30T06:03:34.958Z,13.82
2022-07-30T06:06:04.341Z,13.38
2022-07-30T06:08:31.073Z,12.20
2022-07-30T06:10:57.724Z,11.68
2022-07-30T06:13:24.683Z,12.00
2022-07-30T06:15:51.384Z,11.32
2022-07-30T06:18:18.079Z,11.45
2022-07-30T06:20:45.330Z,11.32
2022-07-30T06:23:12.305Z,10.75
2022-07-30T06:25:39.342Z,10.90
2022-07-30T06:28:27.456Z,10.43
2022-07-30T06:30:53.667Z,10.80
2022-07-30T06:33:22.637Z,10.63
2022-07-30T06:35:49.248Z,9.90
2022-07-30T06:38:16.109Z,10.20
2022-07-30T06:40:42.955Z,9.85
2022-07-30T06:43:09.588Z,9.20
2022-07-30T06:45:36.313Z,9.82
2022-07-30T06:48:03.021Z,9.10
2022-07-30T06:50:32.251Z,8.70
2022-07-30T06:52:58.934Z,9.48
2022-07-30T06:55:25.652Z,8.88
2022-07-30T06:57:52.288Z,8.68
2022-07-30T07:00:19.053Z,8.98
2022-07-30T07:02:45.895Z,8.98
2022-07-30T07:05:12.670Z,8.32
2022-07-30T07:07:44.474Z,8.60
2022-07-30T07:10:15.753Z,8.95
2022-07-30T07:12:42.395Z,8.32
2022-07-30T07:15:09.841Z,8.32
2022-07-30T07:17:36.543Z,8.00
2022-07-30T07:20:03.601Z,8.13
2022-07-30T07:22:30.411Z,8.40
2022-07-30T07:24:57.013Z,8.32
2022-07-30T07:27:26.764Z,7.38
2022-07-30T07:30:01.374Z,7.38
2022-07-30T07:32:31.857Z,7.63
2022-07-30T07:34:58.492Z,7.57
2022-07-30T07:37:27.735Z,7.68
2022-07-30T07:39:54.335Z,7.55
2022-07-30T07:42:21.507Z,7.78
2022-07-30T07:44:48.105Z,6.70
2022-07-30T07:47:14.760Z,8.05
2022-07-30T07:49:41.495Z,7.40
2022-07-30T07:52:08.141Z,7.28
2022-07-30T07:54:34.789Z,7.30
2022-07-30T07:57:03.167Z,7.65
2022-07-30T07:59:39.783Z,6.57
2022-07-30T08:02:08.464Z,7.60
2022-07-30T08:04:35.953Z,6.70
2022-07-30T08:07:03.312Z,6.93
2022-07-30T08:09:43.591Z,7.32
2022-07-30T08:12:14.877Z,6.80
2022-07-30T08:14:44.201Z,6.80
2022-07-30T08:17:10.904Z,6.50
2022-07-30T08:19:37.644Z,7.28
2022-07-30T08:22:06.708Z,6.78
2022-07-30T08:24:33.349Z,7.20
2022-07-30T08:27:00.392Z,6.82
2022-07-30T08:29:27.360Z,7.05
2022-07-30T08:31:54.063Z,6.47
2022-07-30T08:34:20.856Z,7.05
2022-07-30T08:36:52.541Z,6.80
2022-07-30T08:39:19.176Z,6.15
2022-07-30T08:41:45.798Z,6.70
2022-07-30T08:44:12.959Z,6.45
2022-07-30T08:46:41.540Z,6.63
2022-07-30T08:49:15.739Z,6.13
2022-07-30T08:51:42.641Z,6.88
2022-07-30T08:54:09.238Z,6.97
2022-07-30T08:56:35.920Z,6.72
2022-07-30T08:59:03.143Z,6.57
2022-07-30T09:01:29.786Z,6.63
2022-07-30T09:03:56.445Z,6.45
2022-07-30T09:06:23.453Z,6.38
2022-07-30T09:08:50.084Z,6.97
2022-07-30T09:11:16.725Z,6.32
2022-07-30T09:13:44.762Z,6.40
2022-07-30T09:16:25.069Z,6.15
2022-07-30T09:18:52.701Z,6.47
2022-07-30T09:21:26.762Z,6.43
2022-07-30T09:24:00.627Z,6.65
2022-07-30T09:26:27.331Z,6.22
2022-07-30T09:28:53.973Z,6.20
2022-07-30T09:31:21.495Z,7.28
2022-07-30T09:33:48.341Z,5.90
2022-07-30T09:36:18.839Z,6.50
2022-07-30T09:38:47.919Z,6.35
2022-07-30T09:41:37.635Z,6.40
2022-07-30T09:44:05.566Z,6.30
2022-07-30T09:46:47.774Z,6.35
2022-07-30T09:49:33.276Z,5.97
2022-07-30T09:52:00.480Z,6.25
2022-07-30T09:54:51.252Z,6.10
2022-07-30T09:57:25.869Z,6.22
2022-07-30T09:59:57.861Z,6.40
2022-07-30T10:02:32.291Z,5.65
2022-07-30T10:05:13.845Z,5.82
2022-07-30T10:07:54.475Z,6.25
2022-07-30T10:10:31.059Z,6.22
2022-07-30T10:13:01.171Z,5.85
2022-07-30T10:15:34.934Z,6.32
2022-07-30T10:18:02.502Z,6.30
2022-07-30T10:20:33.185Z,6.22
2022-07-30T10:23:08.222Z,6.13
2022-07-30T10:25:36.395Z,6.03
2022-07-30T10:28:03.251Z,6.40
2022-07-30T10:30:32.697Z,7.03
2022-07-30T10:32:59.865Z,6.10
2022-07-30T10:35:31.260Z,6.80
2022-07-30T10:38:04.479Z,6.80
2022-07-30T10:40:34.592Z,6.93
2022-07-30T10:43:33.944Z,6.40
2022-07-30T10:46:42.991Z,6.53
2022-07-30T10:49:19.075Z,6.78
2022-07-30T10:51:55.026Z,6.80
2022-07-30T10:54:45.200Z,7.03
2022-07-30T10:57:31.752Z,8.23
2022-07-30T11:00:00.592Z,8.15
2022-07-30T11:02:31.450Z,7.80
2022-07-30T11:05:43.935Z,7.97
2022-07-30T11:08:31.803Z,7.57
2022-07-30T11:11:19.625Z,7.75
2022-07-30T11:14:02.540Z,8.25
2022-07-30T11:16:31.932Z,8.52
2022-07-30T11:19:56.306Z,8.65
2022-07-30T11:22:21.588Z,8.88
2022-07-30T11:24:49.319Z,9.07
2022-07-30T11:27:45.637Z,8.85
2022-07-30T11:30:15.597Z,8.65
2022-07-30T11:32:44.784Z,8.32
2022-07-30T11:35:24.340Z,8.75
2022-07-30T11:38:22.422Z,8.50
2022-07-30T11:40:49.178Z,8.40
2022-07-30T11:43:15.720Z,8.50
2022-07-30T11:45:42.376Z,8.70
2022-07-30T11:48:13.728Z,9.63
2022-07-30T11:50:40.907Z,8.70
2022-07-30T11:53:14.131Z,8.55
2022-07-30T11:55:45.200Z,8.60
2022-07-30T11:58:26.400Z,8.20
2022-07-30T12:00:53.406Z,8.80
2022-07-30T12:03:21.262Z,9.27
2022-07-30T12:05:51.152Z,8.52
2022-07-30T12:08:35.469Z,9.00
2022-07-30T12:11:03.088Z,9.45
2022-07-30T12:13:44.132Z,8.63
2022-07-30T12:16:14.468Z,9.13
2022-07-30T12:18:41.134Z,9.10
2022-07-30T12:21:11.935Z,9.15
2022-07-30T12:26:05.280Z,8.88
2022-07-30T12:28:33.227Z,8.30
2022-07-30T12:31:00.384Z,8.73
2022-07-30T12:33:27.012Z,9.02
2022-07-30T12:35:57.697Z,9.27
2022-07-30T12:38:25.060Z,8.27
2022-07-30T12:40:59.196Z,8.73
2022-07-30T12:43:45.138Z,8.63
2022-07-30T12:46:14.997Z,8.25
2022-07-30T12:48:54.536Z,9.20
2022-07-30T12:51:22.588Z,8.48
2022-07-30T12:53:49.229Z,8.82
2022-07-30T12:56:19.499Z,8.50
2022-07-30T12:58:46.108Z,8.57
2022-07-30T13:01:12.878Z,8.32
2022-07-30T13:03:40.157Z,9.05
2022-07-30T13:06:20.292Z,8.48
2022-07-30T13:08:47.170Z,7.90
2022-07-30T13:11:13.890Z,9.05
2022-07-30T13:13:40.612Z,8.27
2022-07-30T13:16:07.352Z,8.23
2022-07-30T13:18:35.176Z,8.07
2022-07-30T13:21:02.109Z,7.78
2022-07-30T13:23:29.931Z,8.55
2022-07-30T13:25:57.105Z,8.77
2022-07-30T13:28:24.992Z,8.40
2022-07-30T13:30:51.953Z,8.63
2022-07-30T13:33:18.954Z,8.40
2022-07-30T13:35:48.006Z,8.48
2022-07-30T13:38:15.625Z,8.40
2022-07-30T13:40:42.225Z,8.68
2022-07-30T13:43:08.840Z,8.23
2022-07-30T13:45:38.470Z,8.80
2022-07-30T13:48:05.225Z,8.75
2022-07-30T13:50:31.941Z,8.38
2022-07-30T13:53:02.019Z,8.45
2022-07-30T13:55:29.150Z,8.48
2022-07-30T13:57:55.998Z,8.52
2022-07-30T14:00:23.131Z,8.48
2022-07-30T14:02:49.823Z,8.40
2022-07-30T14:05:16.456Z,9.10
2022-07-30T14:07:43.147Z,8.60
2022-07-30T14:10:09.808Z,8.50
2022-07-30T14:12:37.847Z,8.30
2022-07-30T14:15:05.003Z,8.25
2022-07-30T14:17:31.784Z,8.85
2022-07-30T14:19:58.486Z,8.40
2022-07-30T14:22:25.108Z,8.70
2022-07-30T14:24:51.795Z,8.00
2022-07-30T14:27:20.531Z,8.48
2022-07-30T14:29:47.382Z,8.57
2022-07-30T14:32:14.084Z,8.23
2022-07-30T14:34:41.292Z,7.88
2022-07-30T14:37:18.672Z,8.10
2022-07-30T14:39:45.365Z,8.00
2022-07-30T14:42:12.046Z,8.32
2022-07-30T14:44:38.743Z,8.15
2022-07-30T14:47:05.827Z,7.78
2022-07-30T14:49:34.972Z,8.05
2022-07-30T14:52:01.816Z,7.88
2022-07-30T14:54:28.581Z,8.15
2022-07-30T14:56:58.382Z,7.80
2022-07-30T14:59:28.375Z,8.32
2022-07-30T15:01:55.902Z,10.40
2022-07-30T15:04:22.829Z,15.02
2022-07-30T15:06:49.527Z,22.88
2022-07-30T15:09:16.145Z,24.15
2022-07-30T15:12:08.026Z,24.20
2022-07-30T15:14:29.459Z,26.30
2022-07-30T15:17:00.665Z,28.40
2022-07-30T15:19:30.061Z,28.15
2022-07-30T15:21:56.761Z,27.48
2022-07-30T15:24:26.226Z,26.30
2022-07-30T15:26:54.729Z,25.23
2022-07-30T15:29:21.371Z,25.27
2022-07-30T15:31:48.136Z,25.25
2022-07-30T15:34:14.875Z,23.45
2022-07-30T15:36:41.735Z,24.10
2022-07-30T15:39:08.418Z,22.48
2022-07-30T15:41:36.071Z,21.15
2022-07-30T15:44:02.663Z,20.10
2022-07-30T15:46:29.318Z,20.52
2022-07-30T15:48:56.120Z,19.52
2022-07-30T15:51:22.773Z,17.60
2022-07-30T15:53:49.408Z,19.67
2022-07-30T15:56:16.047Z,17.42
2022-07-30T15:58:43.677Z,17.77
2022-07-30T16:01:10.601Z,18.42
2022-07-30T16:03:39.525Z,16.40
2022-07-30T16:06:06.197Z,15.88
2022-07-30T16:08:32.845Z,15.40
2022-07-30T16:11:03.695Z,15.73
2022-07-30T16:15:57.539Z,14.43
2022-07-30T16:18:24.168Z,14.68
2022-07-30T16:20:50.804Z,13.88
2022-07-30T16:23:21.327Z,13.70
2022-07-30T16:25:48.455Z,14.32
2022-07-30T16:28:15.175Z,13.15
2022-07-30T16:30:51.099Z,14.02
2022-07-30T16:33:18.725Z,13.20
2022-07-30T16:35:48.677Z,12.75
2022-07-30T16:38:18.107Z,12.63
2022-07-30T16:40:45.402Z,12.95
2022-07-30T16:43:12.185Z,12.50
2022-07-30T16:45:38.914Z,12.75
2022-07-30T16:48:05.786Z,12.50
2022-07-30T16:50:32.870Z,12.13
2022-07-30T16:52:59.499Z,12.38
2022-07-30T16:55:26.382Z,11.68
2022-07-30T16:57:53.041Z,12.50
2022-07-30T17:00:21.830Z,11.40
2022-07-30T17:02:48.545Z,11.60
2022-07-30T17:05:16.544Z,11.30
2022-07-30T17:07:43.167Z,11.57
2022-07-30T17:10:11.108Z,10.60
2022-07-30T17:12:39.079Z,12.30
2022-07-30T17:15:07.244Z,11.98
2022-07-30T17:17:33.864Z,10.77
2022-07-30T17:20:01.963Z,11.20
2022-07-30T17:22:29.001Z,11.07
2022-07-30T17:24:55.623Z,11.70
2022-07-30T17:27:22.266Z,11.40
2022-07-30T17:29:50.139Z,11.45
2022-07-30T17:32:18.338Z,11.63
2022-07-30T17:34:45.000Z,10.50
2022-07-30T17:37:14.616Z,11.23
2022-07-30T17:40:19.965Z,10.65
2022-07-30T17:42:27.976Z,11.43
2022-07-30T17:44:54.603Z,10.75
2022-07-30T17:47:21.236Z,10.40
2022-07-30T17:49:48.588Z,11.23
2022-07-30T17:52:15.267Z,10.63
2022-07-30T17:54:44.080Z,11.13
2022-07-30T17:57:12.527Z,11.48
2022-07-30T17:59:39.179Z,11.23
2022-07-30T18:02:06.221Z,11.57
2022-07-30T18:04:35.249Z,10.25
2022-07-30T18:07:04.970Z,11.10
2022-07-30T18:09:37.906Z,10.50
2022-07-30T18:12:07.253Z,9.93
2022-07-30T18:14:33.925Z,9.65
2022-07-30T18:17:02.788Z,9.80
2022-07-30T18:19:31.770Z,9.63
2022-07-30T18:21:58.462Z,9.40
2022-07-30T18:24:29.718Z,9.35
2022-07-30T18:26:56.340Z,9.23
2022-07-30T18:29:22.973Z,9.20
2022-07-30T18:31:49.573Z,9.60
2022-07-30T18:34:16.233Z,9.02
2022-07-30T18:36:42.892Z,9.27
2022-07-30T18:39:09.583Z,9.05
2022-07-30T18:41:36.317Z,9.45
2022-07-30T18:44:03.082Z,9.00
2022-07-30T18:46:29.765Z,9.75
2022-07-30T18:48:57.027Z,9.18
2022-07-30T18:51:25.303Z,10.55
2022-07-30T18:53:53.037Z,9.90
2022-07-30T18:56:20.157Z,11.07
2022-07-30T18:58:46.959Z,9.52
2022-07-30T19:01:13.801Z,8.27
2022-07-30T19:03:40.562Z,9.50
2022-07-30T19:06:07.258Z,9.40
2022-07-30T19:08:33.885Z,9.13
2022-07-30T19:11:01.052Z,8.38
2022-07-30T19:13:27.765Z,10.73
2022-07-30T19:15:54.482Z,9.65
2022-07-30T19:18:21.151Z,9.18
2022-07-30T19:20:47.831Z,9.15
2022-07-30T19:23:16.403Z,9.50
2022-07-30T19:25:43.038Z,9.32
2022-07-30T19:28:11.656Z,9.00
2022-07-30T19:30:38.364Z,9.35
2022-07-30T19:33:14.758Z,8.77
2022-07-30T19:35:42.534Z,8.70
2022-07-30T19:38:09.765Z,9.18
2022-07-30T19:40:39.578Z,8.93
2022-07-30T19:43:09.303Z,8.88
2022-07-30T19:45:47.138Z,8.45
2022-07-30T19:48:28.935Z,9.00
2022-07-30T19:50:58.283Z,8.38
2022-07-30T19:53:25.612Z,9.60
2022-07-30T19:55:52.381Z,8.73
2022-07-30T19:58:19.031Z,8.38
2022-07-30T20:00:49.440Z,9.30
2022-07-30T20:03:16.622Z,8.13
2022-07-30T20:05:54.734Z,8.95
2022-07-30T20:08:25.252Z,9.10
2022-07-30T20:10:52.023Z,8.75
2022-07-30T20:13:20.150Z,9.05
2022-07-30T20:15:49.666Z,9.85
2022-07-30T20:18:29.306Z,15.25
2022-07-30T20:20:56.110Z,17.88
2022-07-30T20:23:25.020Z,17.45
2022-07-30T20:25:52.256Z,20.05
2022-07-30T20:28:21.158Z,21.90
2022-07-30T20:30:49.013Z,23.80
2022-07-30T20:33:16.705Z,22.95
2022-07-30T20:36:01.978Z,24.60
2022-07-30T20:38:29.572Z,24.23
2022-07-30T20:40:56.418Z,25.40
2022-07-30T20:43:23.078Z,25.20
2022-07-30T20:45:54.205Z,25.27
2022-07-30T20:48:25.370Z,23.65
2022-07-30T20:50:52.573Z,21.98
2022-07-30T20:53:19.889Z,23.65
2022-07-30T20:55:47.456Z,23.08
2022-07-30T20:58:16.568Z,23.63
2022-07-30T21:00:49.559Z,24.08
2022-07-30T21:03:21.463Z,24.15
2022-07-30T21:05:48.319Z,22.98
2022-07-30T21:08:17.936Z,22.80
2022-07-30T21:10:46.763Z,23.08
2022-07-30T21:13:13.824Z,26.40
2022-07-30T21:15:45.383Z,27.42
2022-07-30T21:18:27.643Z,27.35
2022-07-30T21:20:54.261Z,33.92
2022-07-30T21:23:23.681Z,38.25
2022-07-30T21:26:00.428Z,39.42
2022-07-30T21:28:35.514Z,42.03
2022-07-30T21:31:17.076Z,44.10
2022-07-30T21:33:43.759Z,51.45
2022-07-30T21:36:12.175Z,53.08
2022-07-30T21:38:42.639Z,49.35
2022-07-30T21:41:13.934Z,53.38
2022-07-30T21:43:41.659Z,57.22
2022-07-30T21:46:08.351Z,55.78
2022-07-30T21:48:37.243Z,57.92
2022-07-30T21:51:06.454Z,61.25
2022-07-30T21:53:45.916Z,63.53
2022-07-30T21:56:13.908Z,56.77
2022-07-30T21:58:41.219Z,54.85
2022-07-30T22:01:17.919Z,54.97
2022-07-30T22:04:03.972Z,53.10
2022-07-30T22:06:38.208Z,51.15
2022-07-30T22:11:52.580Z,50.63
2022-07-30T22:14:19.241Z,46.55
2022-07-30T22:16:48.057Z,47.58
2022-07-30T22:19:15.283Z,42.83
2022-07-30T22:21:46.972Z,44.10
2022-07-30T22:24:29.025Z,42.63
2022-07-30T22:27:01.728Z,42.13
2022-07-30T22:29:41.626Z,40.25
2022-07-30T22:34:36.132Z,38.95
2022-07-30T22:37:02.919Z,33.85
2022-07-30T22:39:31.520Z,35.22
2022-07-30T22:42:16.702Z,35.83
2022-07-30T22:44:45.760Z,33.65
2022-07-30T22:47:18.823Z,34.30
2022-07-30T22:49:52.016Z,30.70
2022-07-30T22:52:25.290Z,30.55
2022-07-30T22:54:54.699Z,31.42
2022-07-30T22:57:22.814Z,28.88
2022-07-30T22:59:57.874Z,29.83
2022-07-30T23:02:25.444Z,30.00
2022-07-30T23:04:54.654Z,27.40
2022-07-30T23:07:23.360Z,28.38
2022-07-30T23:09:52.093Z,26.55
2022-07-30T23:12:20.101Z,27.85
2022-07-30T23:12:28.284Z,52.65
2022-07-30T23:14:47.673Z,25.55
2022-07-30T23:17:14.752Z,25.88
2022-07-30T23:19:41.470Z,25.75
2022-07-30T23:22:08.094Z,24.65
2022-07-30T23:24:34.733Z,25.10
2022-07-30T23:27:02.267Z,25.27
2022-07-30T23:29:29.110Z,25.52
2022-07-30T23:31:55.865Z,24.98
2022-07-30T23:34:22.571Z,25.90
2022-07-30T23:36:49.212Z,27.23
2022-07-30T23:39:15.875Z,29.63
2022-07-30T23:41:44.925Z,32.42
2022-07-30T23:44:11.551Z,34.25
2022-07-30T23:46:38.186Z,34.50
2022-07-30T23:49:05.129Z,38.60
2022-07-30T23:51:33.131Z,36.35
2022-07-30T23:54:00.739Z,36.35
2022-07-30T23:56:27.523Z,37.22
2022-07-30T23:58:56.412Z,37.33
